sensor_id;sensor_type;location;lat;lon;timestamp;temperature;humidity
44229;DHT22;29904;51.058;5.378;2023-04-29T00:01:55;11.40;99.90
44229;DHT22;29904;51.058;5.378;2023-04-29T00:04:27;11.40;99.90
44229;DHT22;29904;51.058;5.378;2023-04-29T00:06:53;11.40;99.90
44229;DHT22;29904;51.058;5.378;2023-04-29T00:09:20;11.40;99.90
44229;DHT22;29904;51.058;5.378;2023-04-29T00:11:46;11.40;99.90
44229;DHT22;29904;51.058;5.378;2023-04-29T00:14:12;11.30;99.90
44229;DHT22;29904;51.058;5.378;2023-04-29T00:16:38;11.30;99.90
44229;DHT22;29904;51.058;5.378;2023-04-29T00:19:04;11.40;99.90
44229;DHT22;29904;51.058;5.378;2023-04-29T00:21:30;11.40;99.90
44229;DHT22;29904;51.058;5.378;2023-04-29T00:23:57;11.40;99.90
44229;DHT22;29904;51.058;5.378;2023-04-29T00:26:23;11.30;99.90
44229;DHT22;29904;51.058;5.378;2023-04-29T00:28:49;11.40;99.90
44229;DHT22;29904;51.058;5.378;2023-04-29T00:31:15;11.50;99.90
44229;DHT22;29904;51.058;5.378;2023-04-29T00:33:40;11.50;99.90
44229;DHT22;29904;51.058;5.378;2023-04-29T00:36:07;11.50;99.90
44229;DHT22;29904;51.058;5.378;2023-04-29T00:38:33;11.50;99.90
44229;DHT22;29904;51.058;5.378;2023-04-29T00:40:59;11.40;99.90
44229;DHT22;29904;51.058;5.378;2023-04-29T00:43:25;11.40;99.90
44229;DHT22;29904;51.058;5.378;2023-04-29T00:45:50;11.30;99.90
44229;DHT22;29904;51.058;5.378;2023-04-29T00:48:16;11.20;99.90
44229;DHT22;29904;51.058;5.378;2023-04-29T00:50:42;11.20;99.90
44229;DHT22;29904;51.058;5.378;2023-04-29T00:53:09;11.30;99.90
44229;DHT22;29904;51.058;5.378;2023-04-29T00:55:34;11.20;99.90
44229;DHT22;29904;51.058;5.378;2023-04-29T00:58:01;11.10;99.90
44229;DHT22;29904;51.058;5.378;2023-04-29T01:00:29;11.00;99.90
44229;DHT22;29904;51.058;5.378;2023-04-29T01:02:55;11.10;99.90
44229;DHT22;29904;51.058;5.378;2023-04-29T01:05:22;11.10;99.90
44229;DHT22;29904;51.058;5.378;2023-04-29T01:07:58;11.10;99.90
44229;DHT22;29904;51.058;5.378;2023-04-29T01:10:34;11.10;99.90
44229;DHT22;29904;51.058;5.378;2023-04-29T01:13:08;11.10;99.90
44229;DHT22;29904;51.058;5.378;2023-04-29T01:15:43;11.10;99.90
44229;DHT22;29904;51.058;5.378;2023-04-29T01:18:20;11.00;99.90
44229;DHT22;29904;51.058;5.378;2023-04-29T01:20:49;10.90;99.90
44229;DHT22;29904;51.058;5.378;2023-04-29T01:23:15;10.90;99.90
44229;DHT22;29904;51.058;5.378;2023-04-29T01:25:41;10.90;99.90
44229;DHT22;29904;51.058;5.378;2023-04-29T01:31:07;11.00;99.90
44229;DHT22;29904;51.058;5.378;2023-04-29T01:33:50;11.00;99.90
44229;DHT22;29904;51.058;5.378;2023-04-29T01:39:15;10.90;99.90
44229;DHT22;29904;51.058;5.378;2023-04-29T01:41:56;10.90;99.90
44229;DHT22;29904;51.058;5.378;2023-04-29T01:44:27;10.90;99.90
44229;DHT22;29904;51.058;5.378;2023-04-29T01:46:54;10.70;99.90
44229;DHT22;29904;51.058;5.378;2023-04-29T01:49:24;10.70;99.90
44229;DHT22;29904;51.058;5.378;2023-04-29T01:51:50;10.70;99.90
44229;DHT22;29904;51.058;5.378;2023-04-29T01:54:16;10.60;99.90
44229;DHT22;29904;51.058;5.378;2023-04-29T01:56:42;10.70;99.90
44229;DHT22;29904;51.058;5.378;2023-04-29T01:59:08;10.70;99.90
44229;DHT22;29904;51.058;5.378;2023-04-29T02:01:33;10.70;99.90
44229;DHT22;29904;51.058;5.378;2023-04-29T02:03:59;10.80;99.90
44229;DHT22;29904;51.058;5.378;2023-04-29T02:06:25;10.70;99.90
44229;DHT22;29904;51.058;5.378;2023-04-29T02:08:51;10.70;99.90
44229;DHT22;29904;51.058;5.378;2023-04-29T02:11:16;10.60;99.90
44229;DHT22;29904;51.058;5.378;2023-04-29T02:13:42;10.60;99.90
44229;DHT22;29904;51.058;5.378;2023-04-29T02:16:12;10.60;99.90
44229;DHT22;29904;51.058;5.378;2023-04-29T02:18:38;10.60;99.90
44229;DHT22;29904;51.058;5.378;2023-04-29T02:21:05;10.60;99.90
44229;DHT22;29904;51.058;5.378;2023-04-29T02:23:31;10.60;99.90
44229;DHT22;29904;51.058;5.378;2023-04-29T02:25:57;10.60;99.90
44229;DHT22;29904;51.058;5.378;2023-04-29T02:28:22;10.60;99.90
44229;DHT22;29904;51.058;5.378;2023-04-29T02:30:48;10.60;99.90
44229;DHT22;29904;51.058;5.378;2023-04-29T02:33:14;10.70;99.90
44229;DHT22;29904;51.058;5.378;2023-04-29T02:35:40;10.60;99.90
44229;DHT22;29904;51.058;5.378;2023-04-29T02:38:06;10.50;99.90
44229;DHT22;29904;51.058;5.378;2023-04-29T02:40:32;10.40;99.90
44229;DHT22;29904;51.058;5.378;2023-04-29T02:42:58;10.50;99.90
44229;DHT22;29904;51.058;5.378;2023-04-29T02:45:24;10.50;99.90
44229;DHT22;29904;51.058;5.378;2023-04-29T02:47:49;10.30;99.90
44229;DHT22;29904;51.058;5.378;2023-04-29T02:50:15;10.40;99.90
44229;DHT22;29904;51.058;5.378;2023-04-29T02:52:41;10.40;99.90
44229;DHT22;29904;51.058;5.378;2023-04-29T02:55:07;10.40;99.90
44229;DHT22;29904;51.058;5.378;2023-04-29T02:57:33;10.30;99.90
44229;DHT22;29904;51.058;5.378;2023-04-29T02:59:59;10.30;99.90
44229;DHT22;29904;51.058;5.378;2023-04-29T03:02:25;10.30;99.90
44229;DHT22;29904;51.058;5.378;2023-04-29T03:04:50;10.40;99.90
44229;DHT22;29904;51.058;5.378;2023-04-29T03:07:17;10.40;99.90
44229;DHT22;29904;51.058;5.378;2023-04-29T03:09:42;10.40;99.90
44229;DHT22;29904;51.058;5.378;2023-04-29T03:12:08;10.40;99.90
44229;DHT22;29904;51.058;5.378;2023-04-29T03:14:34;10.30;99.90
44229;DHT22;29904;51.058;5.378;2023-04-29T03:17:00;10.20;99.90
44229;DHT22;29904;51.058;5.378;2023-04-29T03:19:26;10.20;99.90
44229;DHT22;29904;51.058;5.378;2023-04-29T03:21:52;10.20;99.90
44229;DHT22;29904;51.058;5.378;2023-04-29T03:24:17;10.10;99.90
44229;DHT22;29904;51.058;5.378;2023-04-29T03:26:43;10.10;99.90
44229;DHT22;29904;51.058;5.378;2023-04-29T03:29:09;10.20;99.90
44229;DHT22;29904;51.058;5.378;2023-04-29T03:31:35;10.10;99.90
44229;DHT22;29904;51.058;5.378;2023-04-29T03:34:01;10.10;99.90
44229;DHT22;29904;51.058;5.378;2023-04-29T03:36:26;10.20;99.90
44229;DHT22;29904;51.058;5.378;2023-04-29T03:38:52;10.20;99.90
44229;DHT22;29904;51.058;5.378;2023-04-29T03:41:18;10.20;99.90
44229;DHT22;29904;51.058;5.378;2023-04-29T03:43:43;10.30;99.90
44229;DHT22;29904;51.058;5.378;2023-04-29T03:46:09;10.30;99.90
44229;DHT22;29904;51.058;5.378;2023-04-29T03:48:35;10.30;99.90
44229;DHT22;29904;51.058;5.378;2023-04-29T03:51:02;10.30;99.90
44229;DHT22;29904;51.058;5.378;2023-04-29T03:53:28;10.30;99.90
44229;DHT22;29904;51.058;5.378;2023-04-29T03:55:54;10.20;99.90
44229;DHT22;29904;51.058;5.378;2023-04-29T03:58:20;10.10;99.90
44229;DHT22;29904;51.058;5.378;2023-04-29T04:00:45;10.20;99.90
44229;DHT22;29904;51.058;5.378;2023-04-29T04:03:11;10.10;99.90
44229;DHT22;29904;51.058;5.378;2023-04-29T04:05:37;10.10;99.90
44229;DHT22;29904;51.058;5.378;2023-04-29T04:08:03;10.10;99.90
44229;DHT22;29904;51.058;5.378;2023-04-29T04:10:29;10.10;99.90
44229;DHT22;29904;51.058;5.378;2023-04-29T04:12:54;10.10;99.90
44229;DHT22;29904;51.058;5.378;2023-04-29T04:15:21;10.10;99.90
44229;DHT22;29904;51.058;5.378;2023-04-29T04:17:47;10.10;99.90
44229;DHT22;29904;51.058;5.378;2023-04-29T04:20:12;10.20;99.90
44229;DHT22;29904;51.058;5.378;2023-04-29T04:22:38;10.20;99.90
44229;DHT22;29904;51.058;5.378;2023-04-29T04:25:04;10.10;99.90
44229;DHT22;29904;51.058;5.378;2023-04-29T04:27:30;10.10;99.90
44229;DHT22;29904;51.058;5.378;2023-04-29T04:29:56;10.00;99.90
44229;DHT22;29904;51.058;5.378;2023-04-29T04:32:22;10.10;99.90
44229;DHT22;29904;51.058;5.378;2023-04-29T04:34:48;10.10;99.90
44229;DHT22;29904;51.058;5.378;2023-04-29T04:37:14;10.10;99.90
44229;DHT22;29904;51.058;5.378;2023-04-29T04:39:40;10.10;99.90
44229;DHT22;29904;51.058;5.378;2023-04-29T04:42:06;10.00;99.90
44229;DHT22;29904;51.058;5.378;2023-04-29T04:44:32;10.00;99.90
44229;DHT22;29904;51.058;5.378;2023-04-29T04:46:58;9.90;99.90
44229;DHT22;29904;51.058;5.378;2023-04-29T04:49:27;10.00;99.90
44229;DHT22;29904;51.058;5.378;2023-04-29T04:51:53;10.00;99.90
44229;DHT22;29904;51.058;5.378;2023-04-29T04:54:18;9.90;99.90
44229;DHT22;29904;51.058;5.378;2023-04-29T04:56:44;10.00;99.90
44229;DHT22;29904;51.058;5.378;2023-04-29T04:59:10;10.10;99.90
44229;DHT22;29904;51.058;5.378;2023-04-29T05:01:36;10.20;99.90
44229;DHT22;29904;51.058;5.378;2023-04-29T05:04:02;10.20;99.90
44229;DHT22;29904;51.058;5.378;2023-04-29T05:06:28;10.20;99.90
44229;DHT22;29904;51.058;5.378;2023-04-29T05:08:53;10.20;99.90
44229;DHT22;29904;51.058;5.378;2023-04-29T05:11:20;10.10;99.90
44229;DHT22;29904;51.058;5.378;2023-04-29T05:13:47;10.10;99.90
44229;DHT22;29904;51.058;5.378;2023-04-29T05:16:13;11.20;99.90
44229;DHT22;29904;51.058;5.378;2023-04-29T05:18:39;10.10;99.90
44229;DHT22;29904;51.058;5.378;2023-04-29T05:21:05;10.10;99.90
44229;DHT22;29904;51.058;5.378;2023-04-29T05:23:30;10.00;99.90
44229;DHT22;29904;51.058;5.378;2023-04-29T05:25:56;9.90;99.90
44229;DHT22;29904;51.058;5.378;2023-04-29T05:28:22;9.90;99.90
44229;DHT22;29904;51.058;5.378;2023-04-29T05:30:51;9.80;99.90
44229;DHT22;29904;51.058;5.378;2023-04-29T05:33:16;9.80;99.90
44229;DHT22;29904;51.058;5.378;2023-04-29T05:35:42;9.80;99.90
44229;DHT22;29904;51.058;5.378;2023-04-29T05:38:08;9.90;99.90
44229;DHT22;29904;51.058;5.378;2023-04-29T05:40:34;9.90;99.90
44229;DHT22;29904;51.058;5.378;2023-04-29T05:42:59;9.80;99.90
44229;DHT22;29904;51.058;5.378;2023-04-29T05:45:25;9.80;99.90
44229;DHT22;29904;51.058;5.378;2023-04-29T05:47:51;9.80;99.90
44229;DHT22;29904;51.058;5.378;2023-04-29T05:50:17;9.80;99.90
44229;DHT22;29904;51.058;5.378;2023-04-29T05:52:42;9.80;99.90
44229;DHT22;29904;51.058;5.378;2023-04-29T05:55:08;9.80;99.90
44229;DHT22;29904;51.058;5.378;2023-04-29T05:57:34;9.90;99.90
44229;DHT22;29904;51.058;5.378;2023-04-29T06:00:00;9.80;99.90
44229;DHT22;29904;51.058;5.378;2023-04-29T06:02:26;9.70;99.90
44229;DHT22;29904;51.058;5.378;2023-04-29T06:04:52;9.60;99.90
44229;DHT22;29904;51.058;5.378;2023-04-29T06:07:18;9.70;99.90
44229;DHT22;29904;51.058;5.378;2023-04-29T06:09:44;9.70;99.90
44229;DHT22;29904;51.058;5.378;2023-04-29T06:12:10;9.70;99.90
44229;DHT22;29904;51.058;5.378;2023-04-29T06:14:36;9.80;99.90
44229;DHT22;29904;51.058;5.378;2023-04-29T06:17:01;9.80;99.90
44229;DHT22;29904;51.058;5.378;2023-04-29T06:19:28;9.90;99.90
44229;DHT22;29904;51.058;5.378;2023-04-29T06:21:54;9.90;99.90
44229;DHT22;29904;51.058;5.378;2023-04-29T06:24:19;10.00;99.90
44229;DHT22;29904;51.058;5.378;2023-04-29T06:26:45;10.00;99.90
44229;DHT22;29904;51.058;5.378;2023-04-29T06:29:11;10.00;99.90
44229;DHT22;29904;51.058;5.378;2023-04-29T06:31:37;10.00;99.90
44229;DHT22;29904;51.058;5.378;2023-04-29T06:34:02;10.00;99.90
44229;DHT22;29904;51.058;5.378;2023-04-29T06:36:28;10.00;99.90
44229;DHT22;29904;51.058;5.378;2023-04-29T06:38:54;10.00;99.90
44229;DHT22;29904;51.058;5.378;2023-04-29T06:41:20;10.00;99.90
44229;DHT22;29904;51.058;5.378;2023-04-29T06:43:46;10.10;99.90
44229;DHT22;29904;51.058;5.378;2023-04-29T06:46:11;10.00;99.90
44229;DHT22;29904;51.058;5.378;2023-04-29T06:48:37;10.00;99.90
44229;DHT22;29904;51.058;5.378;2023-04-29T06:51:03;10.00;99.90
44229;DHT22;29904;51.058;5.378;2023-04-29T06:53:29;10.00;99.90
44229;DHT22;29904;51.058;5.378;2023-04-29T06:55:54;10.00;99.90
44229;DHT22;29904;51.058;5.378;2023-04-29T06:58:20;10.10;99.90
44229;DHT22;29904;51.058;5.378;2023-04-29T07:00:47;10.10;99.90
44229;DHT22;29904;51.058;5.378;2023-04-29T07:03:15;10.20;99.90
44229;DHT22;29904;51.058;5.378;2023-04-29T07:05:41;10.40;99.90
44229;DHT22;29904;51.058;5.378;2023-04-29T07:08:10;10.50;99.90
44229;DHT22;29904;51.058;5.378;2023-04-29T07:10:36;10.50;99.90
44229;DHT22;29904;51.058;5.378;2023-04-29T07:13:02;10.50;99.90
44229;DHT22;29904;51.058;5.378;2023-04-29T07:15:29;10.40;99.90
44229;DHT22;29904;51.058;5.378;2023-04-29T07:17:55;10.50;99.90
44229;DHT22;29904;51.058;5.378;2023-04-29T07:20:21;10.60;99.90
44229;DHT22;29904;51.058;5.378;2023-04-29T07:22:47;10.60;99.90
44229;DHT22;29904;51.058;5.378;2023-04-29T07:25:13;10.50;99.90
44229;DHT22;29904;51.058;5.378;2023-04-29T07:27:39;10.50;99.90
44229;DHT22;29904;51.058;5.378;2023-04-29T07:30:05;10.60;99.90
44229;DHT22;29904;51.058;5.378;2023-04-29T07:32:31;10.70;99.90
44229;DHT22;29904;51.058;5.378;2023-04-29T07:34:58;10.60;99.90
44229;DHT22;29904;51.058;5.378;2023-04-29T07:37:24;10.50;99.90
44229;DHT22;29904;51.058;5.378;2023-04-29T07:39:50;10.50;99.90
44229;DHT22;29904;51.058;5.378;2023-04-29T07:42:15;10.60;99.90
44229;DHT22;29904;51.058;5.378;2023-04-29T07:44:41;10.50;99.90
44229;DHT22;29904;51.058;5.378;2023-04-29T07:47:07;10.50;99.90
44229;DHT22;29904;51.058;5.378;2023-04-29T07:49:33;10.50;99.90
44229;DHT22;29904;51.058;5.378;2023-04-29T07:52:00;10.50;99.90
44229;DHT22;29904;51.058;5.378;2023-04-29T07:54:26;10.50;99.90
44229;DHT22;29904;51.058;5.378;2023-04-29T07:56:52;10.50;99.90
44229;DHT22;29904;51.058;5.378;2023-04-29T07:59:18;10.60;99.90
44229;DHT22;29904;51.058;5.378;2023-04-29T08:01:43;10.60;99.90
44229;DHT22;29904;51.058;5.378;2023-04-29T08:04:09;10.70;99.90
44229;DHT22;29904;51.058;5.378;2023-04-29T08:06:35;10.80;99.90
44229;DHT22;29904;51.058;5.378;2023-04-29T08:09:00;10.80;99.90
44229;DHT22;29904;51.058;5.378;2023-04-29T08:11:26;10.80;99.90
44229;DHT22;29904;51.058;5.378;2023-04-29T08:13:52;10.90;99.90
44229;DHT22;29904;51.058;5.378;2023-04-29T08:16:19;11.00;99.90
44229;DHT22;29904;51.058;5.378;2023-04-29T08:18:46;10.90;99.90
44229;DHT22;29904;51.058;5.378;2023-04-29T08:21:11;10.90;99.90
44229;DHT22;29904;51.058;5.378;2023-04-29T08:23:38;11.00;99.90
44229;DHT22;29904;51.058;5.378;2023-04-29T08:26:04;11.00;99.90
44229;DHT22;29904;51.058;5.378;2023-04-29T08:28:30;11.00;99.90
44229;DHT22;29904;51.058;5.378;2023-04-29T08:30:56;11.00;99.90
44229;DHT22;29904;51.058;5.378;2023-04-29T08:33:22;11.10;99.90
44229;DHT22;29904;51.058;5.378;2023-04-29T08:35:48;11.10;99.90
44229;DHT22;29904;51.058;5.378;2023-04-29T08:38:14;11.00;99.90
44229;DHT22;29904;51.058;5.378;2023-04-29T08:40:44;10.90;99.90
44229;DHT22;29904;51.058;5.378;2023-04-29T08:43:13;11.00;99.90
44229;DHT22;29904;51.058;5.378;2023-04-29T08:45:43;11.00;99.90
44229;DHT22;29904;51.058;5.378;2023-04-29T08:48:09;11.00;99.90
44229;DHT22;29904;51.058;5.378;2023-04-29T08:50:38;11.10;99.90
44229;DHT22;29904;51.058;5.378;2023-04-29T08:53:11;11.40;99.90
44229;DHT22;29904;51.058;5.378;2023-04-29T08:55:45;11.50;99.90
44229;DHT22;29904;51.058;5.378;2023-04-29T08:58:12;11.70;99.90
44229;DHT22;29904;51.058;5.378;2023-04-29T09:00:39;11.70;99.90
44229;DHT22;29904;51.058;5.378;2023-04-29T09:03:33;11.80;99.90
44229;DHT22;29904;51.058;5.378;2023-04-29T09:06:02;12.00;99.90
44229;DHT22;29904;51.058;5.378;2023-04-29T09:08:29;12.30;99.90
44229;DHT22;29904;51.058;5.378;2023-04-29T09:10:57;12.30;99.90
44229;DHT22;29904;51.058;5.378;2023-04-29T09:13:29;12.20;99.90
44229;DHT22;29904;51.058;5.378;2023-04-29T09:15:56;12.10;99.90
44229;DHT22;29904;51.058;5.378;2023-04-29T09:18:47;12.20;99.90
44229;DHT22;29904;51.058;5.378;2023-04-29T09:21:23;12.30;99.90
44229;DHT22;29904;51.058;5.378;2023-04-29T09:23:52;12.60;99.90
44229;DHT22;29904;51.058;5.378;2023-04-29T09:26:18;12.90;99.90
44229;DHT22;29904;51.058;5.378;2023-04-29T09:28:44;13.00;99.90
44229;DHT22;29904;51.058;5.378;2023-04-29T09:31:12;13.10;99.90
44229;DHT22;29904;51.058;5.378;2023-04-29T09:34:08;12.80;99.90
44229;DHT22;29904;51.058;5.378;2023-04-29T09:36:40;13.00;99.90
44229;DHT22;29904;51.058;5.378;2023-04-29T09:39:14;13.10;99.90
44229;DHT22;29904;51.058;5.378;2023-04-29T09:44:22;13.30;99.90
44229;DHT22;29904;51.058;5.378;2023-04-29T09:47:04;13.40;99.90
44229;DHT22;29904;51.058;5.378;2023-04-29T09:49:35;13.30;99.90
44229;DHT22;29904;51.058;5.378;2023-04-29T09:52:04;13.10;99.90
44229;DHT22;29904;51.058;5.378;2023-04-29T09:54:31;13.20;99.90
44229;DHT22;29904;51.058;5.378;2023-04-29T09:56:59;13.20;99.90
44229;DHT22;29904;51.058;5.378;2023-04-29T09:59:27;13.10;99.90
44229;DHT22;29904;51.058;5.378;2023-04-29T10:01:54;13.20;99.90
44229;DHT22;29904;51.058;5.378;2023-04-29T10:04:22;13.40;99.90
44229;DHT22;29904;51.058;5.378;2023-04-29T10:06:50;13.70;99.90
44229;DHT22;29904;51.058;5.378;2023-04-29T10:09:17;13.80;99.90
44229;DHT22;29904;51.058;5.378;2023-04-29T10:11:46;13.90;99.90
44229;DHT22;29904;51.058;5.378;2023-04-29T10:14:25;14.10;99.90
44229;DHT22;29904;51.058;5.378;2023-04-29T10:17:01;14.20;99.90
44229;DHT22;29904;51.058;5.378;2023-04-29T10:19:34;14.20;99.90
44229;DHT22;29904;51.058;5.378;2023-04-29T10:22:08;14.00;99.90
44229;DHT22;29904;51.058;5.378;2023-04-29T10:24:36;14.10;99.90
44229;DHT22;29904;51.058;5.378;2023-04-29T10:27:06;14.20;99.90
44229;DHT22;29904;51.058;5.378;2023-04-29T10:29:33;14.40;99.90
44229;DHT22;29904;51.058;5.378;2023-04-29T10:32:02;14.70;99.90
44229;DHT22;29904;51.058;5.378;2023-04-29T10:34:30;15.10;99.90
44229;DHT22;29904;51.058;5.378;2023-04-29T10:36:56;15.30;99.90
44229;DHT22;29904;51.058;5.378;2023-04-29T10:39:49;15.50;99.90
44229;DHT22;29904;51.058;5.378;2023-04-29T10:42:42;15.90;99.90
44229;DHT22;29904;51.058;5.378;2023-04-29T10:45:27;16.00;99.90
44229;DHT22;29904;51.058;5.378;2023-04-29T10:50:34;15.70;99.90
44229;DHT22;29904;51.058;5.378;2023-04-29T10:53:04;15.50;99.90
44229;DHT22;29904;51.058;5.378;2023-04-29T10:55:31;15.30;99.90
44229;DHT22;29904;51.058;5.378;2023-04-29T10:58:02;15.20;99.90
44229;DHT22;29904;51.058;5.378;2023-04-29T11:00:33;15.30;99.90
44229;DHT22;29904;51.058;5.378;2023-04-29T11:03:05;15.40;99.90
44229;DHT22;29904;51.058;5.378;2023-04-29T11:05:35;15.50;99.90
44229;DHT22;29904;51.058;5.378;2023-04-29T11:08:11;15.60;99.90
44229;DHT22;29904;51.058;5.378;2023-04-29T11:10:41;15.80;99.90
44229;DHT22;29904;51.058;5.378;2023-04-29T11:13:23;16.20;99.90
44229;DHT22;29904;51.058;5.378;2023-04-29T11:15:54;16.40;99.90
44229;DHT22;29904;51.058;5.378;2023-04-29T11:18:28;16.60;99.90
44229;DHT22;29904;51.058;5.378;2023-04-29T11:23:36;16.90;99.90
44229;DHT22;29904;51.058;5.378;2023-04-29T11:26:02;16.90;99.90
44229;DHT22;29904;51.058;5.378;2023-04-29T11:28:30;16.90;99.90
44229;DHT22;29904;51.058;5.378;2023-04-29T11:30:57;16.90;99.90
44229;DHT22;29904;51.058;5.378;2023-04-29T11:33:23;16.80;99.90
44229;DHT22;29904;51.058;5.378;2023-04-29T11:35:50;16.70;99.90
44229;DHT22;29904;51.058;5.378;2023-04-29T11:38:16;16.60;99.90
44229;DHT22;29904;51.058;5.378;2023-04-29T11:40:47;16.40;99.90
44229;DHT22;29904;51.058;5.378;2023-04-29T11:43:17;16.30;99.90
44229;DHT22;29904;51.058;5.378;2023-04-29T11:45:46;16.20;99.90
44229;DHT22;29904;51.058;5.378;2023-04-29T11:48:19;16.20;99.90
44229;DHT22;29904;51.058;5.378;2023-04-29T11:50:46;16.10;99.90
44229;DHT22;29904;51.058;5.378;2023-04-29T11:53:13;16.00;99.90
44229;DHT22;29904;51.058;5.378;2023-04-29T11:55:41;15.80;99.90
44229;DHT22;29904;51.058;5.378;2023-04-29T11:58:08;15.80;99.90
44229;DHT22;29904;51.058;5.378;2023-04-29T12:00:34;15.80;99.90
44229;DHT22;29904;51.058;5.378;2023-04-29T12:02:59;15.70;99.90
44229;DHT22;29904;51.058;5.378;2023-04-29T12:05:25;15.70;99.90
44229;DHT22;29904;51.058;5.378;2023-04-29T12:07:53;15.60;99.90
44229;DHT22;29904;51.058;5.378;2023-04-29T12:10:19;15.80;99.90
44229;DHT22;29904;51.058;5.378;2023-04-29T12:12:46;15.90;99.90
44229;DHT22;29904;51.058;5.378;2023-04-29T12:15:12;15.90;99.90
44229;DHT22;29904;51.058;5.378;2023-04-29T12:17:39;15.90;99.90
44229;DHT22;29904;51.058;5.378;2023-04-29T12:20:06;16.00;99.90
44229;DHT22;29904;51.058;5.378;2023-04-29T12:22:34;15.90;99.90
44229;DHT22;29904;51.058;5.378;2023-04-29T12:25:02;15.90;99.90
44229;DHT22;29904;51.058;5.378;2023-04-29T12:27:28;16.00;99.90
44229;DHT22;29904;51.058;5.378;2023-04-29T12:29:56;16.10;99.90
44229;DHT22;29904;51.058;5.378;2023-04-29T12:32:23;16.10;99.90
44229;DHT22;29904;51.058;5.378;2023-04-29T12:34:50;16.00;99.90
44229;DHT22;29904;51.058;5.378;2023-04-29T12:37:21;16.20;99.90
44229;DHT22;29904;51.058;5.378;2023-04-29T12:39:49;16.30;99.90
44229;DHT22;29904;51.058;5.378;2023-04-29T12:42:15;16.30;99.90
44229;DHT22;29904;51.058;5.378;2023-04-29T12:44:45;16.40;99.90
44229;DHT22;29904;51.058;5.378;2023-04-29T12:47:14;16.60;99.90
44229;DHT22;29904;51.058;5.378;2023-04-29T12:49:42;16.70;99.90
44229;DHT22;29904;51.058;5.378;2023-04-29T12:52:08;16.90;99.90
44229;DHT22;29904;51.058;5.378;2023-04-29T12:54:38;17.10;99.90
44229;DHT22;29904;51.058;5.378;2023-04-29T12:57:08;17.10;99.90
44229;DHT22;29904;51.058;5.378;2023-04-29T12:59:35;17.00;99.90
44229;DHT22;29904;51.058;5.378;2023-04-29T13:02:01;16.80;99.90
44229;DHT22;29904;51.058;5.378;2023-04-29T13:04:27;16.70;99.90
44229;DHT22;29904;51.058;5.378;2023-04-29T13:06:53;16.70;99.90
44229;DHT22;29904;51.058;5.378;2023-04-29T13:09:27;16.70;99.90
44229;DHT22;29904;51.058;5.378;2023-04-29T13:11:53;16.70;99.90
44229;DHT22;29904;51.058;5.378;2023-04-29T13:14:19;16.70;99.90
44229;DHT22;29904;51.058;5.378;2023-04-29T13:16:45;16.40;99.90
44229;DHT22;29904;51.058;5.378;2023-04-29T13:19:11;16.40;99.90
44229;DHT22;29904;51.058;5.378;2023-04-29T13:21:37;16.50;99.90
44229;DHT22;29904;51.058;5.378;2023-04-29T13:24:03;16.60;99.90
44229;DHT22;29904;51.058;5.378;2023-04-29T13:26:29;16.70;99.90
44229;DHT22;29904;51.058;5.378;2023-04-29T13:28:55;16.70;99.90
44229;DHT22;29904;51.058;5.378;2023-04-29T13:31:21;16.90;99.90
44229;DHT22;29904;51.058;5.378;2023-04-29T13:33:47;17.00;99.90
44229;DHT22;29904;51.058;5.378;2023-04-29T13:36:13;17.10;99.90
44229;DHT22;29904;51.058;5.378;2023-04-29T13:38:39;17.20;99.90
44229;DHT22;29904;51.058;5.378;2023-04-29T13:41:05;17.20;99.90
44229;DHT22;29904;51.058;5.378;2023-04-29T13:43:31;17.20;99.90
44229;DHT22;29904;51.058;5.378;2023-04-29T13:45:56;17.30;99.90
44229;DHT22;29904;51.058;5.378;2023-04-29T13:48:23;17.20;99.90
44229;DHT22;29904;51.058;5.378;2023-04-29T13:50:48;17.30;99.90
44229;DHT22;29904;51.058;5.378;2023-04-29T13:53:14;17.30;99.90
44229;DHT22;29904;51.058;5.378;2023-04-29T13:55:41;17.30;99.90
44229;DHT22;29904;51.058;5.378;2023-04-29T13:58:07;17.30;99.90
44229;DHT22;29904;51.058;5.378;2023-04-29T14:00:33;17.20;99.90
44229;DHT22;29904;51.058;5.378;2023-04-29T14:02:58;17.40;99.90
44229;DHT22;29904;51.058;5.378;2023-04-29T14:05:24;17.60;99.90
44229;DHT22;29904;51.058;5.378;2023-04-29T14:07:50;17.60;99.90
44229;DHT22;29904;51.058;5.378;2023-04-29T14:10:16;17.40;99.90
44229;DHT22;29904;51.058;5.378;2023-04-29T14:12:42;17.40;99.90
44229;DHT22;29904;51.058;5.378;2023-04-29T14:15:08;17.50;99.90
44229;DHT22;29904;51.058;5.378;2023-04-29T14:17:34;17.60;99.90
44229;DHT22;29904;51.058;5.378;2023-04-29T14:20:01;17.60;99.90
44229;DHT22;29904;51.058;5.378;2023-04-29T14:22:26;17.20;99.90
44229;DHT22;29904;51.058;5.378;2023-04-29T14:24:52;17.00;99.90
44229;DHT22;29904;51.058;5.378;2023-04-29T14:27:18;17.10;99.90
44229;DHT22;29904;51.058;5.378;2023-04-29T14:29:44;17.30;99.90
44229;DHT22;29904;51.058;5.378;2023-04-29T14:32:10;17.30;99.90
44229;DHT22;29904;51.058;5.378;2023-04-29T14:34:36;17.30;99.90
44229;DHT22;29904;51.058;5.378;2023-04-29T14:37:02;17.30;99.90
44229;DHT22;29904;51.058;5.378;2023-04-29T14:39:28;17.30;99.90
44229;DHT22;29904;51.058;5.378;2023-04-29T14:41:53;17.20;99.90
44229;DHT22;29904;51.058;5.378;2023-04-29T14:44:19;17.20;99.90
44229;DHT22;29904;51.058;5.378;2023-04-29T14:46:45;17.10;99.90
44229;DHT22;29904;51.058;5.378;2023-04-29T14:49:10;17.00;99.90
44229;DHT22;29904;51.058;5.378;2023-04-29T14:51:36;17.00;99.90
44229;DHT22;29904;51.058;5.378;2023-04-29T14:54:02;16.90;99.90
44229;DHT22;29904;51.058;5.378;2023-04-29T14:56:28;16.90;99.90
44229;DHT22;29904;51.058;5.378;2023-04-29T14:58:54;16.70;99.90
44229;DHT22;29904;51.058;5.378;2023-04-29T15:01:20;16.60;99.90
44229;DHT22;29904;51.058;5.378;2023-04-29T15:03:45;16.70;99.90
44229;DHT22;29904;51.058;5.378;2023-04-29T15:06:11;16.90;99.90
44229;DHT22;29904;51.058;5.378;2023-04-29T15:08:37;16.90;99.90
44229;DHT22;29904;51.058;5.378;2023-04-29T15:11:03;17.00;99.90
44229;DHT22;29904;51.058;5.378;2023-04-29T15:13:29;17.20;99.90
44229;DHT22;29904;51.058;5.378;2023-04-29T15:15:55;17.20;99.90
44229;DHT22;29904;51.058;5.378;2023-04-29T15:18:20;17.10;99.90
44229;DHT22;29904;51.058;5.378;2023-04-29T15:20:47;17.10;99.90
44229;DHT22;29904;51.058;5.378;2023-04-29T15:23:14;17.10;99.90
44229;DHT22;29904;51.058;5.378;2023-04-29T15:25:40;17.10;99.90
44229;DHT22;29904;51.058;5.378;2023-04-29T15:28:06;17.10;99.90
44229;DHT22;29904;51.058;5.378;2023-04-29T15:30:32;17.20;99.90
44229;DHT22;29904;51.058;5.378;2023-04-29T15:32:58;17.20;99.90
44229;DHT22;29904;51.058;5.378;2023-04-29T15:35:23;17.20;99.90
44229;DHT22;29904;51.058;5.378;2023-04-29T15:37:49;17.10;99.90
44229;DHT22;29904;51.058;5.378;2023-04-29T15:40:15;17.10;99.90
44229;DHT22;29904;51.058;5.378;2023-04-29T15:42:42;16.90;99.90
44229;DHT22;29904;51.058;5.378;2023-04-29T15:45:08;16.90;99.90
44229;DHT22;29904;51.058;5.378;2023-04-29T15:47:34;16.90;99.90